Avawam, Kentucky
Current Conditions -  °F | °C
As of 9:05 AM on Thursday 23 Oct 2014 (Local Time) from KJKL Reporting Station
Overcast Overcast  
Wind Chill: 47°   Ceiling: 3000
Heat Index: 47°   Visibility: 10mi
Dew Point: 39°   Wind: 3mph
Humidity: 74%   Direction: NA
Pressure: 30.23"   Gusts: NA
Location:  37.22°N, 83.27°W
Report Text: KJKL 231305Z AUTO VRB03KT 10SM OVC030 08/04 A3023 RMK AO2 T00830039
Loading
Personal Weather Stations






























Interactive Weather Map
Tropical Storm Tracking
New forecast layout! Learn more

10-Day Weather Forecast

Advertisements
Track Severe Weather on mobile